Terminal Aerodrome Forecast
Issued by NWS Bismarck, ND

Home | Current Version | Previous Version | Text Only | Print | Product List | Glossary Off
Versions: 1 2 3 4 5 6 7 8 9 10 11 12 13 14 15 16 17

000
FTUS43 KBIS 162300
TAFBIS
TAF
KBIS 162321Z 1700/1724 02011KT P6SM FEW140
     FM170200 35003KT P6SM SKC
     FM170500 VRB03KT P6SM SKC
     FM171300 28005KT P6SM FEW300
     FM171900 34007KT P6SM FEW300=

USA.gov is the U.S. government's official web portal to all federal, state and local government web resources and services.